createdAt,value
2023-03-02T09:26:38.291Z,101083.16
2023-03-02T09:28:41.217Z,101083.16
2023-03-02T09:30:49.142Z,101076.88
2023-03-02T09:32:51.611Z,101079.78
2023-03-02T09:34:54.510Z,101081.91
2023-03-02T09:36:56.888Z,101083.47
2023-03-02T09:38:59.264Z,101084.06
2023-03-02T09:41:20.308Z,101088.16
2023-03-02T09:43:45.589Z,101083.34
2023-03-02T09:46:09.461Z,101078.69
2023-03-02T09:48:28.403Z,101085.28
2023-03-02T09:50:37.116Z,101071.53
2023-03-02T09:52:54.752Z,101079.72
2023-03-02T09:55:04.531Z,101059.69
2023-03-02T09:57:32.204Z,101074.84
2023-03-02T09:59:48.786Z,101068.66
2023-03-02T10:02:01.421Z,101068.19
2023-03-02T10:04:13.947Z,101074.44
2023-03-02T10:06:16.355Z,101073.53
2023-03-02T10:08:22.606Z,101076.09
2023-03-02T10:10:40.890Z,101068.09
2023-03-02T10:13:00.004Z,101069.19
2023-03-02T10:15:15.981Z,101061.31
2023-03-02T10:18:00.770Z,101059.66
2023-03-02T10:20:09.517Z,101059.47
2023-03-02T10:22:32.914Z,101067.31
2023-03-02T10:24:40.647Z,101064.63
2023-03-02T10:26:52.021Z,101059.75
2023-03-02T10:29:03.107Z,101045.62
2023-03-02T10:31:27.814Z,101043.84
2023-03-02T10:33:31.220Z,101036.31
2023-03-02T10:35:34.711Z,101038.44
2023-03-02T10:37:37.684Z,101042.16
2023-03-02T10:39:40.021Z,101042.03
2023-03-02T10:41:51.767Z,101046.13
2023-03-02T10:43:59.373Z,101037.91
2023-03-02T10:46:08.653Z,101036.47
2023-03-02T10:48:13.901Z,101034.44
2023-03-02T10:50:24.100Z,101024.59
2023-03-02T10:52:28.741Z,101019.78
2023-03-02T10:54:33.565Z,101016.41
2023-03-02T10:56:36.560Z,101020.06
2023-03-02T10:58:38.930Z,100996.34
2023-03-02T11:00:41.270Z,100984.53
2023-03-02T11:02:55.146Z,100979.03
2023-03-02T11:05:10.667Z,100980.06
2023-03-02T11:07:22.182Z,100984.94
2023-03-02T11:11:32.780Z,100965.38
2023-03-02T11:13:37.607Z,100955.13
2023-03-02T11:15:46.059Z,100951.06
2023-03-02T11:17:53.857Z,100954.53
2023-03-02T11:19:56.479Z,100937.22
2023-03-02T11:22:02.844Z,100939.69
2023-03-02T11:24:23.763Z,100931.78
2023-03-02T11:26:32.371Z,100932.69
2023-03-02T11:28:43.906Z,100935.56
2023-03-02T11:30:50.666Z,100939.19
2023-03-02T11:33:07.989Z,100946.34
2023-03-02T11:35:31.401Z,100963.97
2023-03-02T11:37:48.110Z,100988.84
2023-03-02T11:39:55.516Z,101002.41
2023-03-02T11:41:58.729Z,101019.09
2023-03-02T11:44:14.202Z,101022.12
2023-03-02T11:46:27.062Z,101029.75
2023-03-02T11:48:55.798Z,101031.16
2023-03-02T11:51:22.113Z,101031.34
2023-03-02T11:53:30.183Z,101022.66
2023-03-02T11:55:40.590Z,101007.22
2023-03-02T11:57:49.645Z,101006.16
2023-03-02T11:59:54.107Z,100999.00
2023-03-02T12:01:59.648Z,100994.53
2023-03-02T12:04:24.272Z,101005.53
2023-03-02T12:06:29.842Z,100984.97
2023-03-02T12:08:40.110Z,100983.28
2023-03-02T12:10:55.470Z,100976.34
2023-03-02T12:13:13.138Z,100981.06
2023-03-02T12:15:42.535Z,100969.00
2023-03-02T12:17:45.217Z,100969.47
2023-03-02T12:19:48.424Z,100957.62
2023-03-02T12:21:59.747Z,100973.88
2023-03-02T12:24:04.103Z,100972.03
2023-03-02T12:26:24.486Z,100968.91
2023-03-02T12:28:36.918Z,100972.37
2023-03-02T12:30:39.626Z,100979.97
2023-03-02T12:32:45.181Z,100951.34
2023-03-02T12:35:02.995Z,100959.47
2023-03-02T12:37:22.895Z,100949.63
2023-03-02T12:39:45.114Z,100961.63
2023-03-02T12:41:50.467Z,100948.72
2023-03-02T12:44:05.348Z,100944.53
2023-03-02T12:46:29.191Z,100946.00
2023-03-02T12:48:41.891Z,100942.56
2023-03-02T12:50:47.596Z,100940.91
2023-03-02T12:53:01.671Z,100925.37
2023-03-02T12:55:10.023Z,100918.00
2023-03-02T12:57:20.477Z,100909.31
2023-03-02T12:59:25.650Z,100913.66
2023-03-02T13:01:30.661Z,100906.38
2023-03-02T13:03:33.519Z,100902.66
2023-03-02T13:05:36.511Z,100902.06
2023-03-02T13:07:38.820Z,100907.59
2023-03-02T13:09:47.717Z,100912.31
2023-03-02T13:11:57.745Z,100905.56
2023-03-02T13:14:03.657Z,100894.81
2023-03-02T13:16:19.858Z,100892.28
2023-03-02T13:18:24.468Z,100888.88
2023-03-02T13:20:29.764Z,100901.66
2023-03-02T13:22:32.861Z,100895.31
2023-03-02T13:24:45.897Z,100897.75
2023-03-02T13:26:57.262Z,100890.44
2023-03-02T13:29:23.202Z,100885.88
2023-03-02T13:31:25.759Z,100879.22
2023-03-02T13:33:29.435Z,100873.66
2023-03-02T13:35:35.684Z,100877.78
2023-03-02T13:37:43.714Z,100880.44
2023-03-02T13:39:55.375Z,100866.75
2023-03-02T13:42:00.490Z,100869.09
2023-03-02T13:44:22.059Z,100868.88
2023-03-02T13:46:33.959Z,100867.28
2023-03-02T13:48:37.049Z,100864.63
2023-03-02T13:50:39.396Z,100857.34
2023-03-02T13:52:41.781Z,100848.09
2023-03-02T13:54:47.250Z,100838.84
2023-03-02T13:56:51.351Z,100836.72
2023-03-02T13:58:53.968Z,100824.03
2023-03-02T14:00:57.035Z,100818.88
2023-03-02T14:02:59.937Z,100818.31
2023-03-02T14:05:02.355Z,100806.87
2023-03-02T14:07:06.559Z,100803.97
2023-03-02T14:09:09.349Z,100789.75
2023-03-02T14:11:13.049Z,100781.41
2023-03-02T14:13:19.961Z,100783.94
2023-03-02T14:15:24.754Z,100786.09
2023-03-02T14:17:27.176Z,100771.25
2023-03-02T14:19:29.488Z,100755.87
2023-03-02T14:21:33.777Z,100743.84
2023-03-02T14:23:36.460Z,100733.41
2023-03-02T14:25:38.847Z,100734.56
2023-03-02T14:27:42.704Z,100731.69
2023-03-02T14:29:46.663Z,100718.87
2023-03-02T14:31:49.139Z,100716.78
2023-03-02T14:33:52.108Z,100715.94
2023-03-02T14:35:57.274Z,100713.69
2023-03-02T14:37:59.778Z,100711.37
2023-03-02T14:40:02.568Z,100714.41
2023-03-02T14:42:06.709Z,100710.72
2023-03-02T14:44:11.656Z,100702.09
2023-03-02T14:46:14.510Z,100704.81
2023-03-02T14:48:16.921Z,100703.72
2023-03-02T14:50:19.432Z,100699.91
2023-03-02T14:52:30.516Z,100700.09
2023-03-02T14:54:48.291Z,100703.47
2023-03-02T14:56:50.770Z,100691.16
2023-03-02T14:58:54.288Z,100690.41
2023-03-02T15:00:56.664Z,100691.06
2023-03-02T15:02:59.447Z,100697.81
2023-03-02T15:05:02.096Z,100685.44
2023-03-02T15:07:04.496Z,100687.59
2023-03-02T15:09:06.843Z,100688.09
2023-03-02T15:11:09.612Z,100686.25
2023-03-02T15:13:13.926Z,100690.31
2023-03-02T15:15:16.675Z,100685.69
2023-03-02T15:17:19.603Z,100681.22
2023-03-02T15:19:22.208Z,100677.72
2023-03-02T15:21:24.714Z,100677.00
2023-03-02T15:23:27.516Z,100677.50
2023-03-02T15:25:30.331Z,100680.63
2023-03-02T15:27:32.703Z,100680.13
2023-03-02T15:29:35.514Z,100681.63
2023-03-02T15:31:38.028Z,100676.41
2023-03-02T15:33:41.442Z,100676.91
2023-03-02T15:35:44.495Z,100680.28
2023-03-02T15:37:46.948Z,100680.38
2023-03-02T15:39:54.333Z,100682.81
2023-03-02T15:41:56.999Z,100682.41
2023-03-02T15:43:59.873Z,100682.13
2023-03-02T15:46:02.420Z,100683.88
2023-03-02T15:48:05.519Z,100682.84
2023-03-02T15:50:08.510Z,100679.78
2023-03-02T15:52:12.019Z,100674.03
2023-03-02T15:54:15.806Z,100680.34
2023-03-02T15:56:18.193Z,100677.03
2023-03-02T15:58:22.154Z,100676.97
2023-03-02T16:00:25.038Z,100677.87
2023-03-02T16:02:27.692Z,100681.19
2023-03-02T16:04:31.654Z,100682.97
2023-03-02T16:06:34.158Z,100679.66
2023-03-02T16:08:37.357Z,100677.13
2023-03-02T16:10:42.839Z,100673.09
2023-03-02T16:12:45.664Z,100670.72
2023-03-02T16:14:48.356Z,100678.25
2023-03-02T16:16:51.757Z,100674.84
2023-03-02T16:18:56.146Z,100674.50
2023-03-02T16:20:59.462Z,100679.78
2023-03-02T16:23:06.358Z,100676.56
2023-03-02T16:25:09.323Z,100675.59
2023-03-02T16:27:12.475Z,100674.22
2023-03-02T16:29:15.101Z,100678.50
2023-03-02T16:31:19.644Z,100680.16
2023-03-02T16:33:22.963Z,100680.81
2023-03-02T16:35:27.169Z,100681.37
2023-03-02T16:37:29.868Z,100682.00
2023-03-02T16:39:33.339Z,100676.53
2023-03-02T16:41:36.974Z,100685.66
2023-03-02T16:43:57.157Z,100684.13
2023-03-02T16:46:00.249Z,100681.91
2023-03-02T16:48:04.121Z,100685.72
2023-03-02T16:50:07.528Z,100687.94
2023-03-02T16:52:11.140Z,100687.59
2023-03-02T16:54:17.057Z,100688.69
2023-03-02T16:56:20.649Z,100686.09
2023-03-02T16:58:24.692Z,100694.41
2023-03-02T17:00:28.256Z,100696.69
2023-03-02T17:02:30.916Z,100701.19
2023-03-02T17:04:37.486Z,100697.25
2023-03-02T17:06:59.569Z,100700.25
2023-03-02T17:09:04.184Z,100695.97
2023-03-02T17:11:07.685Z,100702.38
2023-03-02T17:13:12.889Z,100701.97
2023-03-02T17:15:15.589Z,100699.28
2023-03-02T17:17:19.028Z,100702.78
2023-03-02T17:19:21.693Z,100690.66
2023-03-02T17:21:24.842Z,100693.28
2023-03-02T17:23:28.382Z,100699.84
2023-03-02T17:25:31.281Z,100691.13
2023-03-02T17:27:33.913Z,100687.25
2023-03-02T17:29:37.302Z,100693.50
2023-03-02T17:31:40.041Z,100695.22
2023-03-02T17:33:42.874Z,100686.88
2023-03-02T17:35:46.622Z,100691.50
2023-03-02T17:37:49.945Z,100689.84
2023-03-02T17:39:52.749Z,100690.00
2023-03-02T17:41:55.814Z,100686.47
2023-03-02T17:43:58.899Z,100691.81
2023-03-02T17:46:13.999Z,100682.13
2023-03-02T17:48:17.057Z,100683.38
2023-03-02T17:50:22.618Z,100676.47
2023-03-02T17:52:26.230Z,100679.06
2023-03-02T17:54:29.526Z,100683.50
2023-03-02T17:56:34.475Z,100687.97
2023-03-02T17:58:45.013Z,100687.84
2023-03-02T18:00:49.099Z,100685.19
2023-03-02T18:02:53.460Z,100690.22
2023-03-02T18:04:56.407Z,100688.56
2023-03-02T18:07:00.423Z,100692.22
2023-03-02T18:09:07.331Z,100693.88
2023-03-02T18:11:11.299Z,100691.78
2023-03-02T18:13:14.129Z,100697.72
2023-03-02T18:15:17.970Z,100687.59
2023-03-02T18:17:20.956Z,100687.87
2023-03-02T18:19:23.899Z,100683.28
2023-03-02T18:21:28.534Z,100671.72
2023-03-02T18:23:32.234Z,100665.13
2023-03-02T18:25:35.512Z,100652.31
2023-03-02T18:27:39.973Z,100643.81
2023-03-02T18:29:44.245Z,100632.78
2023-03-02T18:31:47.769Z,100633.50
2023-03-02T18:33:52.112Z,100629.69
2023-03-02T18:35:56.517Z,100618.47
2023-03-02T18:38:05.220Z,100621.62
2023-03-02T18:40:10.485Z,100618.47
2023-03-02T18:42:14.310Z,100613.03
2023-03-02T18:44:20.912Z,100606.69
2023-03-02T18:46:27.147Z,100594.88
2023-03-02T18:48:30.377Z,100596.72
2023-03-02T18:50:33.858Z,100600.19
2023-03-02T18:52:37.462Z,100588.41
2023-03-02T18:54:40.450Z,100579.13
2023-03-02T18:56:43.772Z,100571.31
2023-03-02T18:58:50.130Z,100569.47
2023-03-02T19:00:56.309Z,100562.50
2023-03-02T19:02:59.573Z,100559.31
2023-03-02T19:05:03.283Z,100550.75
2023-03-02T19:07:07.165Z,100548.22
2023-03-02T19:09:11.994Z,100544.75
2023-03-02T19:11:20.209Z,100538.63
2023-03-02T19:13:24.026Z,100535.41
2023-03-02T19:15:26.929Z,100528.31
2023-03-02T19:17:31.469Z,100525.66
2023-03-02T19:19:36.010Z,100535.41
2023-03-02T19:21:41.676Z,100534.34
2023-03-02T19:23:46.554Z,100529.09
2023-03-02T19:25:51.139Z,100532.13
2023-03-02T19:27:55.009Z,100529.75
2023-03-02T19:29:58.383Z,100530.97
2023-03-02T19:32:02.244Z,100533.09
2023-03-02T19:34:07.018Z,100537.31
2023-03-02T19:36:11.977Z,100544.00
2023-03-02T19:38:15.235Z,100543.25
2023-03-02T19:40:21.897Z,100548.69
2023-03-02T19:42:26.839Z,100534.88
2023-03-02T19:44:30.545Z,100544.38
2023-03-02T19:46:34.091Z,100539.44
2023-03-02T19:48:38.576Z,100541.19
2023-03-02T19:50:42.501Z,100533.62
2023-03-02T19:52:45.775Z,100530.22
2023-03-02T19:54:52.481Z,100531.09
2023-03-02T19:56:57.829Z,100522.59
2023-03-02T19:59:01.811Z,100521.44
2023-03-02T20:01:09.430Z,100523.28
2023-03-02T20:03:17.204Z,100524.31
2023-03-02T20:05:21.529Z,100518.09
2023-03-02T20:07:24.489Z,100515.56
2023-03-02T20:09:28.693Z,100508.00
2023-03-02T20:11:32.731Z,100507.81
2023-03-02T20:13:36.511Z,100501.00
2023-03-02T20:15:43.322Z,100494.22
2023-03-02T20:17:46.865Z,100494.37
2023-03-02T20:19:50.888Z,100490.91
2023-03-02T20:21:55.151Z,100488.06
2023-03-02T20:23:58.645Z,100487.16
2023-03-02T20:26:01.649Z,100479.12
2023-03-02T20:28:08.157Z,100474.06
2023-03-02T20:30:16.850Z,100470.53
2023-03-02T20:32:20.875Z,100473.94
2023-03-02T20:34:24.928Z,100469.62
2023-03-02T20:36:34.735Z,100480.06
2023-03-02T20:38:44.193Z,100477.63
2023-03-02T20:40:48.744Z,100476.06
2023-03-02T20:42:52.927Z,100472.06
2023-03-02T20:44:56.929Z,100464.56
2023-03-02T20:47:04.144Z,100458.56
2023-03-02T20:49:10.457Z,100447.53
2023-03-02T20:51:13.979Z,100443.50
2023-03-02T20:53:18.221Z,100422.69
2023-03-02T20:55:22.405Z,100416.75
2023-03-02T20:57:25.716Z,100409.63
2023-03-02T20:59:29.177Z,100397.03
2023-03-02T21:01:33.116Z,100389.56
2023-03-02T21:03:36.558Z,100391.22
2023-03-02T21:05:41.736Z,100382.34
2023-03-02T21:07:45.492Z,100387.75
2023-03-02T21:09:48.849Z,100385.53
2023-03-02T21:11:52.824Z,100371.53
2023-03-02T21:13:59.869Z,100376.78
2023-03-02T21:16:03.851Z,100365.06
2023-03-02T21:18:07.331Z,100364.69
2023-03-02T21:20:11.877Z,100359.59
2023-03-02T21:22:14.567Z,100356.00
2023-03-02T21:24:20.225Z,100348.25
2023-03-02T21:26:23.953Z,100353.56
2023-03-02T21:28:26.839Z,100338.59
2023-03-02T21:30:34.180Z,100340.12
2023-03-02T21:32:36.962Z,100336.75
2023-03-02T21:34:40.072Z,100326.25
2023-03-02T21:36:43.616Z,100334.00
2023-03-02T21:38:49.116Z,100325.31
2023-03-02T21:40:51.743Z,100318.34
2023-03-02T21:42:55.218Z,100319.16
2023-03-02T21:44:57.521Z,100309.97
2023-03-02T21:46:59.982Z,100298.91
2023-03-02T21:49:02.908Z,100301.53
2023-03-02T21:51:08.216Z,100290.50
2023-03-02T21:53:10.648Z,100278.47
2023-03-02T21:55:13.685Z,100277.87
2023-03-02T21:57:16.266Z,100278.06
2023-03-02T21:59:18.568Z,100269.81
2023-03-02T22:01:21.956Z,100258.94
2023-03-02T22:03:24.613Z,100256.91
2023-03-02T22:05:27.806Z,100255.81
2023-03-02T22:07:30.765Z,100269.88
2023-03-02T22:09:33.445Z,100285.75
2023-03-02T22:11:37.926Z,100281.50
2023-03-02T22:13:40.522Z,100274.56
2023-03-02T22:15:44.924Z,100270.91
2023-03-02T22:17:47.232Z,100267.41
2023-03-02T22:19:51.782Z,100263.13
2023-03-02T22:21:56.293Z,100261.53
2023-03-02T22:24:03.639Z,100252.75
2023-03-02T22:26:14.703Z,100232.41
2023-03-02T22:28:20.971Z,100241.09
2023-03-02T22:30:23.999Z,100225.38
2023-03-02T22:32:38.476Z,100221.19
2023-03-02T22:34:43.765Z,100216.37
2023-03-02T22:36:46.205Z,100232.91
2023-03-02T22:38:48.986Z,100234.72
2023-03-02T22:40:52.541Z,100222.25
2023-03-02T22:43:08.556Z,100231.72
2023-03-02T22:45:19.618Z,100225.62
2023-03-02T22:47:22.289Z,100225.09
2023-03-02T22:49:24.740Z,100214.03
2023-03-02T22:51:30.792Z,100211.56
2023-03-02T22:53:56.696Z,100202.53
2023-03-02T22:56:03.972Z,100189.13
2023-03-02T22:58:43.912Z,100188.78
2023-03-02T23:00:48.010Z,100202.16
2023-03-02T23:02:52.737Z,100199.25
2023-03-02T23:04:55.038Z,100171.69
2023-03-02T23:07:05.514Z,100172.72
2023-03-02T23:09:08.300Z,100167.66
2023-03-02T23:11:18.766Z,100179.19
2023-03-02T23:13:25.163Z,100169.84
2023-03-02T23:15:29.280Z,100172.00
2023-03-02T23:17:35.995Z,100159.44
2023-03-02T23:19:38.782Z,100163.25
2023-03-02T23:21:46.066Z,100159.09
2023-03-02T23:23:49.857Z,100157.84
2023-03-02T23:25:52.537Z,100150.16
2023-03-02T23:27:54.910Z,100156.53
